PWSweather.com
Personal Weather Stations
Station Observations
STPETERS
BroadstairsGB

BroadstairsGB

Lat: 51.37, Lon: 1.423

Elevation: 141

Station Type: WH1081

Latest ConditionsUpdated 1:00:01 PM GMT Monday, Oct 20, 2014
Currently Today's Max Today's Min Today's Average
Temperature 62.2°F16.8°C 62.6°F17.0°C 53.6°F12.0°C 56.9°F13.8°C
Dew Point 50.3°F10.2°C 54.7°F12.6°C 50.3°F10.2°C 53.0°F11.7°C
Winds 10.1 mph WSW16.3 kmh WSW 11.5 mph W18.5 kmh W - 8.8 mph 14.2 kmh
Wind Gusts 12.1 mph19.5 kmh 19.0 mph30.6 kmh - -
Humidity 65% 93% 65% 87%
Pressure 29.98 in1015.2 mb 30.03 in1016.9 mb 29.98 in1015.2 mb -
Hour Temp Dew Point Humidity Winds Wind Gusts Pressure Precip Precip Rate Daily Precip Total
01:00 PM 62.2°F16.8°C 50.3°F10.2°C 65% 10.1 mph WSW16.3 kmh WSW 12.1 mph19.5 kmh 29.98 in1015.2 mb 0.00 in0.0 mm 0.00 in/hr0.0 mm/hr 0.00 in0.0 mm
12:45 PM 62.4°F16.9°C 50.5°F10.3°C 65% 11.3 mph WSW18.2 kmh WSW 14.5 mph23.3 kmh 29.99 in1015.6 mb 0.00 in0.0 mm 0.00 in/hr0.0 mm/hr 0.00 in0.0 mm
12:30 PM 62.6°F17.0°C 51.1°F10.6°C 66% 10.4 mph WSW16.7 kmh WSW 15.2 mph24.5 kmh 29.99 in1015.6 mb 0.00 in0.0 mm 0.00 in/hr0.0 mm/hr 0.00 in0.0 mm
12:15 PM 62.4°F16.9°C 51.3°F10.7°C 67% 10.0 mph W16.1 kmh W 13.0 mph20.9 kmh 30.00 in1015.9 mb 0.00 in0.0 mm 0.00 in/hr0.0 mm/hr 0.00 in0.0 mm
12:00 PM 62.1°F16.7°C 51.8°F11.0°C 69% 10.2 mph WSW16.4 kmh WSW 19.0 mph30.6 kmh 30.00 in1015.9 mb 0.00 in0.0 mm 0.00 in/hr0.0 mm/hr 0.00 in0.0 mm
11:45 AM 60.8°F16.0°C 51.4°F10.8°C 71% 8.2 mph W13.2 kmh W 13.0 mph20.9 kmh 30.01 in1016.3 mb 0.00 in0.0 mm 0.00 in/hr0.0 mm/hr 0.00 in0.0 mm
11:30 AM 61.0°F16.1°C 51.5°F10.8°C 71% 11.5 mph W18.5 kmh W 15.9 mph25.6 kmh 30.01 in1016.3 mb 0.00 in0.0 mm 0.00 in/hr0.0 mm/hr 0.00 in0.0 mm
11:15 AM 60.4°F15.8°C 52.5°F11.4°C 75% 9.7 mph WSW15.6 kmh WSW 15.2 mph24.5 kmh 30.02 in1016.6 mb 0.00 in0.0 mm 0.00 in/hr0.0 mm/hr 0.00 in0.0 mm
11:00 AM 60.6°F15.9°C 52.3°F11.3°C 74% 10.6 mph W17.1 kmh W 15.9 mph25.6 kmh 30.02 in1016.6 mb 0.00 in0.0 mm 0.00 in/hr0.0 mm/hr 0.00 in0.0 mm
10:45 AM 60.3°F15.7°C 53.4°F11.9°C 78% 10.0 mph WSW16.1 kmh WSW 15.2 mph24.5 kmh 30.03 in1016.9 mb 0.00 in0.0 mm 0.00 in/hr0.0 mm/hr 0.00 in0.0 mm
10:30 AM 59.7°F15.4°C 53.2°F11.8°C 79% 9.4 mph SW15.1 kmh SW 14.5 mph23.3 kmh 30.02 in1016.6 mb 0.00 in0.0 mm 0.00 in/hr0.0 mm/hr 0.00 in0.0 mm
10:15 AM 59.2°F15.1°C 53.4°F11.9°C 81% 9.2 mph WSW14.8 kmh WSW 12.1 mph19.5 kmh 30.03 in1016.9 mb 0.00 in0.0 mm 0.00 in/hr0.0 mm/hr 0.00 in0.0 mm
10:00 AM 58.8°F14.9°C 53.7°F12.1°C 83% 9.6 mph W15.4 kmh W 15.9 mph25.6 kmh 30.03 in1016.9 mb 0.00 in0.0 mm 0.00 in/hr0.0 mm/hr 0.00 in0.0 mm
09:45 AM 58.3°F14.6°C 53.8°F12.1°C 85% 8.0 mph W12.9 kmh W 13.0 mph20.9 kmh 30.03 in1016.9 mb 0.00 in0.0 mm 0.00 in/hr0.0 mm/hr 0.00 in0.0 mm
09:30 AM 57.7°F14.3°C 53.9°F12.2°C 87% 8.8 mph WSW14.2 kmh WSW 12.1 mph19.5 kmh 30.03 in1016.9 mb 0.00 in0.0 mm 0.00 in/hr0.0 mm/hr 0.00 in0.0 mm
09:15 AM 57.2°F14.0°C 53.7°F12.1°C 88% 11.2 mph WSW18.0 kmh WSW 15.9 mph25.6 kmh 30.03 in1016.9 mb 0.00 in0.0 mm 0.00 in/hr0.0 mm/hr 0.00 in0.0 mm
09:00 AM 56.8°F13.8°C 53.9°F12.2°C 90% 10.0 mph WSW16.1 kmh WSW 13.6 mph21.9 kmh 30.02 in1016.6 mb 0.00 in0.0 mm 0.00 in/hr0.0 mm/hr 0.00 in0.0 mm
08:45 AM 56.5°F13.6°C 54.2°F12.3°C 92% 9.7 mph W15.6 kmh W 14.5 mph23.3 kmh 30.02 in1016.6 mb 0.00 in0.0 mm 0.00 in/hr0.0 mm/hr 0.00 in0.0 mm
08:30 AM 55.9°F13.3°C 54.0°F12.2°C 93% 8.8 mph WSW14.2 kmh WSW 15.2 mph24.5 kmh 30.03 in1016.9 mb 0.00 in0.0 mm 0.00 in/hr0.0 mm/hr 0.00 in0.0 mm
08:15 AM 55.4°F13.0°C 53.4°F11.9°C 93% 7.0 mph WSW11.3 kmh WSW 9.8 mph15.8 kmh 30.02 in1016.6 mb 0.00 in0.0 mm 0.00 in/hr0.0 mm/hr 0.00 in0.0 mm
08:00 AM 55.0°F12.8°C 53.1°F11.7°C 93% 6.0 mph WSW9.7 kmh WSW 8.3 mph13.4 kmh 30.02 in1016.6 mb 0.00 in0.0 mm 0.00 in/hr0.0 mm/hr 0.00 in0.0 mm
07:45 AM 54.9°F12.7°C 52.9°F11.6°C 93% 7.8 mph WSW12.6 kmh WSW 10.7 mph17.2 kmh 30.02 in1016.6 mb 0.00 in0.0 mm 0.00 in/hr0.0 mm/hr 0.00 in0.0 mm
07:30 AM 54.7°F12.6°C 52.7°F11.5°C 93% 8.6 mph W13.8 kmh W 11.4 mph18.3 kmh 30.01 in1016.3 mb 0.00 in0.0 mm 0.00 in/hr0.0 mm/hr 0.00 in0.0 mm
07:15 AM 54.3°F12.4°C 52.3°F11.3°C 93% 10.0 mph SW16.1 kmh SW 13.0 mph20.9 kmh 30.02 in1016.6 mb 0.00 in0.0 mm 0.00 in/hr0.0 mm/hr 0.00 in0.0 mm
07:00 AM 54.0°F12.2°C 52.0°F11.1°C 93% 8.4 mph WSW13.5 kmh WSW 10.7 mph17.2 kmh 30.01 in1016.3 mb 0.00 in0.0 mm 0.00 in/hr0.0 mm/hr 0.00 in0.0 mm
06:45 AM 53.8°F12.1°C 51.8°F11.0°C 93% 7.0 mph W11.3 kmh W 9.2 mph14.8 kmh 30.01 in1016.3 mb 0.00 in0.0 mm 0.00 in/hr0.0 mm/hr 0.00 in0.0 mm
06:30 AM 53.6°F12.0°C 51.6°F10.9°C 93% 5.6 mph WSW9.0 kmh WSW 8.3 mph13.4 kmh 30.01 in1016.3 mb 0.00 in0.0 mm 0.00 in/hr0.0 mm/hr 0.00 in0.0 mm
06:15 AM 53.8°F12.1°C 51.8°F11.0°C 93% 5.6 mph WSW9.0 kmh WSW 6.9 mph11.1 kmh 30.00 in1015.9 mb 0.00 in0.0 mm 0.00 in/hr0.0 mm/hr 0.00 in0.0 mm
06:00 AM 54.0°F12.2°C 52.0°F11.1°C 93% 7.2 mph W11.6 kmh W 9.8 mph15.8 kmh 30.00 in1015.9 mb 0.00 in0.0 mm 0.00 in/hr0.0 mm/hr 0.00 in0.0 mm
05:45 AM 54.1°F12.3°C 52.2°F11.2°C 93% 7.8 mph WSW12.6 kmh WSW 10.7 mph17.2 kmh 30.00 in1015.9 mb 0.00 in0.0 mm 0.00 in/hr0.0 mm/hr 0.00 in0.0 mm
05:30 AM 54.3°F12.4°C 52.3°F11.3°C 93% 8.9 mph W14.3 kmh W 12.1 mph19.5 kmh 30.00 in1015.9 mb 0.00 in0.0 mm 0.00 in/hr0.0 mm/hr 0.00 in0.0 mm
05:15 AM 54.5°F12.5°C 52.5°F11.4°C 93% 8.2 mph WSW13.2 kmh WSW 10.7 mph17.2 kmh 30.00 in1015.9 mb 0.00 in0.0 mm 0.00 in/hr0.0 mm/hr 0.00 in0.0 mm
05:00 AM 54.5°F12.5°C 52.5°F11.4°C 93% 7.9 mph WSW12.7 kmh WSW 9.8 mph15.8 kmh 30.00 in1015.9 mb 0.00 in0.0 mm 0.00 in/hr0.0 mm/hr 0.00 in0.0 mm
04:45 AM 54.7°F12.6°C 52.7°F11.5°C 93% 9.4 mph W15.1 kmh W 13.6 mph21.9 kmh 30.00 in1015.9 mb 0.00 in0.0 mm 0.00 in/hr0.0 mm/hr 0.00 in0.0 mm
04:30 AM 54.9°F12.7°C 52.9°F11.6°C 93% 9.1 mph WSW14.6 kmh WSW 12.1 mph19.5 kmh 29.99 in1015.6 mb 0.00 in0.0 mm 0.00 in/hr0.0 mm/hr 0.00 in0.0 mm
04:15 AM 54.9°F12.7°C 52.9°F11.6°C 93% 7.3 mph W11.7 kmh W 9.8 mph15.8 kmh 29.99 in1015.6 mb 0.00 in0.0 mm 0.00 in/hr0.0 mm/hr 0.00 in0.0 mm
04:00 AM 55.0°F12.8°C 52.8°F11.6°C 92% 8.1 mph SW13.0 kmh SW 10.7 mph17.2 kmh 30.00 in1015.9 mb 0.00 in0.0 mm 0.00 in/hr0.0 mm/hr 0.00 in0.0 mm
03:45 AM 55.4°F13.0°C 53.1°F11.7°C 92% 7.3 mph W11.7 kmh W 10.7 mph17.2 kmh 29.99 in1015.6 mb 0.00 in0.0 mm 0.00 in/hr0.0 mm/hr 0.00 in0.0 mm
03:30 AM 55.6°F13.1°C 53.3°F11.8°C 92% 8.4 mph WSW13.5 kmh WSW 11.4 mph18.3 kmh 29.99 in1015.6 mb 0.00 in0.0 mm 0.00 in/hr0.0 mm/hr 0.00 in0.0 mm
03:15 AM 55.8°F13.2°C 53.5°F11.9°C 92% 8.1 mph WSW13.0 kmh WSW 9.8 mph15.8 kmh 30.00 in1015.9 mb 0.00 in0.0 mm 0.00 in/hr0.0 mm/hr 0.00 in0.0 mm
03:00 AM 56.3°F13.5°C 53.7°F12.1°C 91% 8.2 mph WSW13.2 kmh WSW 13.0 mph20.9 kmh 30.00 in1015.9 mb 0.00 in0.0 mm 0.00 in/hr0.0 mm/hr 0.00 in0.0 mm
02:45 AM 56.5°F13.6°C 54.2°F12.3°C 92% 9.1 mph SW14.6 kmh SW 12.1 mph19.5 kmh 30.00 in1015.9 mb 0.00 in0.0 mm 0.00 in/hr0.0 mm/hr 0.00 in0.0 mm
02:30 AM 56.3°F13.5°C 54.3°F12.4°C 93% 9.7 mph WSW15.6 kmh WSW 13.0 mph20.9 kmh 29.99 in1015.6 mb 0.00 in0.0 mm 0.00 in/hr0.0 mm/hr 0.00 in0.0 mm
02:15 AM 56.3°F13.5°C 54.3°F12.4°C 93% 9.6 mph WSW15.4 kmh WSW 12.1 mph19.5 kmh 30.00 in1015.9 mb 0.00 in0.0 mm 0.00 in/hr0.0 mm/hr 0.00 in0.0 mm
02:00 AM 56.1°F13.4°C 54.1°F12.3°C 93% 10.7 mph W17.2 kmh W 15.2 mph24.5 kmh 30.00 in1015.9 mb 0.00 in0.0 mm 0.00 in/hr0.0 mm/hr 0.00 in0.0 mm
01:45 AM 55.9°F13.3°C 54.0°F12.2°C 93% 8.7 mph W14.0 kmh W 11.4 mph18.3 kmh 30.00 in1015.9 mb 0.00 in0.0 mm 0.00 in/hr0.0 mm/hr 0.00 in0.0 mm
01:30 AM 56.1°F13.4°C 54.1°F12.3°C 93% 7.4 mph WSW11.9 kmh WSW 9.2 mph14.8 kmh 30.00 in1015.9 mb 0.00 in0.0 mm 0.00 in/hr0.0 mm/hr 0.00 in0.0 mm
01:15 AM 56.3°F13.5°C 54.3°F12.4°C 93% 8.2 mph WSW13.2 kmh WSW 12.1 mph19.5 kmh 30.00 in1015.9 mb 0.00 in0.0 mm 0.00 in/hr0.0 mm/hr 0.00 in0.0 mm
01:00 AM 56.3°F13.5°C 54.3°F12.4°C 93% 8.7 mph WSW14.0 kmh WSW 11.4 mph18.3 kmh 30.00 in1015.9 mb 0.00 in0.0 mm 0.00 in/hr0.0 mm/hr 0.00 in0.0 mm
12:45 AM 56.5°F13.6°C 54.5°F12.5°C 93% 8.5 mph WSW13.7 kmh WSW 10.7 mph17.2 kmh 30.00 in1015.9 mb 0.00 in0.0 mm 0.00 in/hr0.0 mm/hr 0.00 in0.0 mm
12:30 AM 56.5°F13.6°C 54.5°F12.5°C 93% 7.3 mph WSW11.7 kmh WSW 9.2 mph14.8 kmh 30.00 in1015.9 mb 0.00 in0.0 mm 0.00 in/hr0.0 mm/hr 0.00 in0.0 mm
12:15 AM 56.7°F13.7°C 54.7°F12.6°C 93% 8.9 mph WSW14.3 kmh WSW 10.7 mph17.2 kmh 30.00 in1015.9 mb 0.00 in0.0 mm 0.00 in/hr0.0 mm/hr 0.00 in0.0 mm
12:00 AM 56.8°F13.8°C 54.6°F12.6°C 92% 8.6 mph WSW13.8 kmh WSW 13.0 mph20.9 kmh 29.99 in1015.6 mb 0.00 in0.0 mm 0.00 in/hr0.0 mm/hr 0.00 in0.0 mm